x

Western Caribbean - 195 Nm Wsw Of Negril Jamiaca (42057) Wave Buoy

11:50 - Sat 28th Mar 2015 All times are UTC.

  • Sig Wave height 3.0ft
  • Swell Direction
  • Peak Period 8s
  • Average Period 5s
  • Wind
    2mph, 4mph gusts
  • Sea Temp 83°f
  • Air Temp 80°f
  • Sea Pressure 1016.2mb

More Historic Weather Station data

Upgrade to MSW Pro to gain access to the past 30 days of data for over 8000 Wavebouys and Weather Stations around the globe.

Join Pro

Comparision Forecast

View Surf forecast
   
sam. 03/28 11:50 3ft 8s 5s 2 4 mph 1016.2mb 83f 80f
10:50 3.5ft 7s 6s 4 7 mph 1015.6mb 83f 81f
9:50 3.5ft 8s 6s 7 9 mph 1015.3mb 84f 79f
8:50 3.5ft 8s 6s 7 9 mph 1014.8mb 84f 81f
7:50 2.5ft 8s 5s 7
mph
1015.4mb 85f 81f
6:50 3ft 7s 6s 9 11 mph 1016mb 83f 81f
5:50 3.5ft 8s 5s 2
mph
1017mb 85f 82f
4:50 2.5ft 7s 5s 2
mph
1017.8mb 84f 81f
3:50 2.5ft 7s 5s 2 4 mph 1018.1mb 83f 81f
2:50 2.5ft 8s 5s 4 7 mph 1018mb 83f 81f
1:50 2.5ft 8s 5s 2 4 mph 1017.9mb 82f 81f
12:50 3ft 8s 5s 4
mph
1017.1mb 82f 81f
11:50 3ft 6s 5s 4 7 mph 1016.7mb 82f 80f
10:50 2.5ft 6s 5s 4 7 mph 1015.8mb 82f 80f
9:50 3ft 8s 5s 2 4 mph 1015.4mb 82f 80f
8:50 3ft 8s 5s 4
mph
1014.9mb 82f 80f
7:50 3ft 6s 5s 4 7 mph 1014.9mb 82f 80f
6:50 3ft 7s 5s 9
mph
1014.9mb 82f 80f
5:50 3ft 6s 5s 4 7 mph 1015.9mb 82f 80f
4:50 3ft 7s 5s 4 7 mph 1016.3mb 82f 81f
3:50 3ft 6s 5s 4 7 mph 1016.6mb 82f 81f
2:50 3.5ft 6s 5s 7 9 mph 1016.1mb 82f 81f
1:50 3.5ft 5s 5s 7 9 mph 1015.1mb 82f 81f
12:50 3.5ft 7s 5s 7 9 mph 1014.5mb 82f 81f
ven. 03/27 11:50 3.5ft 7s 5s 9 11 mph 1013.8mb 83f 81f
10:50 3ft 7s 5s 11 13 mph 1013.4mb 83f 81f
9:50 3.5ft 7s 5s 11 13 mph 1013.3mb 83f 82f
8:50 3ft 4s 4s 13
mph
1013mb 83f 82f
7:50 3ft 7s 5s 11 13 mph 1013.4mb 83f 82f
6:50 3.5ft 7s 5s 13
mph
1013.9mb 83f 81f
5:50 3.5ft 7s 5s 13 16 mph 1014.5mb 82f 81f
4:50 3ft 7s 4s 13 16 mph 1015.1mb 82f 81f
3:50 3ft 6s 4s 13 16 mph 1015.3mb 82f 81f
2:50 3ft 7s 5s 13 16 mph 1015.4mb 82f 81f
1:50 3ft 7s 4s 13
mph
1015.5mb 82f 81f
12:50 3ft 7s 4s 13 16 mph 1014.9mb 82f 81f
11:50 2.5ft 8s 4s 13 16 mph 1014.3mb 82f 80f
10:50 3ft 7s 4s 13 18 mph 1013.4mb 82f 80f
9:50 3ft 7s 4s 13 16 mph 1013.1mb 82f 80f
8:50 3ft 6s 4s 13 18 mph 1012.8mb 82f 80f
7:50 3ft 7s 4s 13 16 mph 1013.1mb 82f 80f
6:50 3ft 7s 4s 13 18 mph 1013.2mb 82f 80f
5:50 3ft 6s 4s 16 18 mph 1013.5mb 82f 81f
4:50 2.5ft 7s 4s 16 20 mph 1014.2mb 82f 81f
3:50 2.5ft 7s 4s 16 20 mph 1014.7mb 82f 81f
2:50 2.5ft 7s 4s 16 18 mph 1014.5mb 82f 81f
1:50 3ft 8s 5s 13 16 mph 1014.2mb 82f 81f
12:50 3ft 7s 5s 13 16 mph 1014mb 82f 81f
jeu. 03/26 11:50 3ft 7s 5s 11 13 mph 1013.8mb 83f 81f
10:50 3ft 6s 4s 11 13 mph 1013.8mb 83f 81f
9:50 3ft 5s 4s 11 13 mph 1013.6mb 83f 81f
8:50 2.5ft 7s 4s 11 13 mph 1013.7mb 83f 81f
7:50 3ft 6s 4s 11 16 mph 1014.1mb 82f 81f
6:50 2.5ft 4s 4s 11 13 mph 1014.8mb 82f 81f
5:50 3ft 7s 4s 11 13 mph 1015.5mb 82f 81f
4:50 2.5ft 6s 4s 11 13 mph 1016.4mb 82f 81f
3:50 2.5ft 5s 4s 11 13 mph 1017mb 82f 81f
2:50 2.5ft 4s 4s 11 13 mph 1017.1mb 82f 81f
1:50 2.5ft 5s 4s 13 18 mph 1016.7mb 82f 81f
12:50 2.5ft 5s 4s 16 18 mph 1015.9mb 82f 81f
11:50 2.5ft 6s 4s 13 16 mph 1015.2mb 82f 81f
10:50 2ft 6s 4s 13 16 mph 1014.7mb 82f 80f
9:50 2.5ft 6s 4s 11 16 mph 1014.4mb 82f 80f
8:50 2ft 7s 4s 11 13 mph 1014.2mb 82f 80f
7:50 2.5ft 5s 4s 13 16 mph 1014.5mb 82f 81f
6:50 2.5ft 4s 4s 13
mph
1015.1mb 82f 80f
5:50 2.5ft 4s 4s 13 16 mph 1015.9mb 82f 81f
4:50 2ft 4s 4s 13 16 mph 1016.6mb 82f 81f
3:50 2.5ft 4s 4s 11 16 mph 1017.1mb 82f 81f
2:50 2ft 4s 4s 11 13 mph 1017mb 82f 81f
1:50 2ft 4s 4s 13 16 mph 1016.5mb 82f 81f
12:50 2ft 5s 4s 11 13 mph 1016.1mb 82f 81f
mer. 03/25 11:50 2ft 4s 4s 13 16 mph 1015.9mb 82f 81f
10:50 1.6ft 6s 4s 13 16 mph 1015.6mb 82f 81f
9:50 2ft 4s 4s 11 13 mph 1015.5mb 83f 81f
8:50 2ft 4s 4s 11 13 mph 1015.7mb 83f 81f
7:50 2ft 4s 4s 11 13 mph 1016.1mb 83f 81f
6:50 1.6ft 3s 4s 11 13 mph 1016.5mb 82f 81f
5:50 1.6ft 7s 4s 11 13 mph 1017.2mb 82f 81f
4:50 1.6ft 6s 4s 13 16 mph 1017.8mb 82f 81f
3:50 1.6ft 6s 4s 13 16 mph 1018.2mb 82f 81f
2:50 1.6ft 6s 4s 13 16 mph 1018mb 82f 81f
1:50 1.3ft 7s 4s 11 16 mph 1017.7mb 82f 81f
12:50 1.6ft 7s 4s 11 13 mph 1017.1mb 82f 80f
11:50 1.6ft 7s 4s 11 13 mph 1016.8mb 82f 80f
10:50 1.6ft 6s 4s 9 11 mph 1016.4mb 82f 80f
9:50 1.6ft 6s 4s 9 11 mph 1015.8mb 82f 80f
8:50 1.3ft 6s 4s 9 11 mph 1015.5mb 82f 80f
7:50 1.6ft 6s 4s 9 11 mph 1015.7mb 82f 80f
6:50 1.3ft 6s 4s 11 13 mph 1016.1mb 82f 80f
5:50 1.3ft 6s 4s 11
mph
1016.6mb 82f 80f
4:50 1.3ft 6s 5s 9 11 mph 1017.3mb 82f 81f
3:50 1.3ft 6s 4s 9
mph
1017.5mb 82f 80f
2:50 1.3ft 6s 4s 7 9 mph 1017.4mb 82f 80f
1:50 1ft 6s 4s 7 9 mph 1017mb 82f 81f